Hood River, OR (97031)

11:55 PM PDT on August 20, 2014 (GMT -0700)
Waterfront | Change Station
CLOSE
Current Station
Personal Weather Station
Location: Hood River, OR
Elevation: 60 ft
Nearby Weather Stations

Elev 60 ft 45.72 °N, 121.51 °W | Updated 25 seconds ago

Clear
Clear
67.5 °F
Feels Like 67.5 °F
N
11.0
Wind Variable Wind from West
Gusts 15.0 mph

Today
High -- | Low -- °F
--% Chance of Precip.
Yesterday
High -- | Low -- °F
Precip. -- in
6:12 AM 8:05 PM
Waning Crescent, 16% visible
Pressure 29.89 in
Visibility 10.0 miles
Clouds Clear
Dew Point 52 °F
Humidity 57%
Rainfall 0.00 in
Snow Depth 1 in , 0 in
UV 0 out of 12
Pollen 3.70 out of 12
Air Quality Not available.
Flu Activity Not available.
METAR KDLS 210553Z AUTO 25012G19KT 220V290 10SM CLR 21/08 A2989 RMK AO2 SLP122 T02110083 10261 20211 51013

More Conditions Fewer Conditions

Pressure 29.89 in
Visibility 10.0 miles
Clouds Clear
Dew Point 52 °F
Humidity 57%
Rainfall 0.00 in
Snow Depth 1 in , 0 in
UV 0 out of 12
Pollen 3.70 out of 12
Air Quality Not available.
Flu Activity Not available.
METAR KDLS 210553Z AUTO 25012G19KT 220V290 10SM CLR 21/08 A2989 RMK AO2 SLP122 T02110083 10261 20211 51013

More Conditions Fewer Conditions

10-Day Weather Forecast

Almanac

Astronomy

Aug. 20, 2014 Rise Set
Actual Time 6:12 AM PDT 8:05 PM PDT
Civil Twilight 5:40 AM PDT 8:37 PM PDT
Nautical Twilight 5:01 AM PDT 9:15 PM PDT
Astronomical Twilight 4:18 AM PDT 9:58 PM PDT
Moon 1:51 AM PDT (8/20) 4:59 PM PDT (8/20)
Length of Visible Light 14h 56m
Length of Day
13h 52m
Tomorrow will be 2m 57s shorter.
Waning Crescent, 16% of the Moon is Illuminated
Aug 21
Waning Crescent
Aug 25
New
Sep 2
First Quarter
Sep 8
Full
Sep 15
Last Quarter

Yesterday's Extremes

State Highs State Lows

Community

WunderPhotos

Upload Photos

1,745,858 photos uploaded!

Nearby

Snow Depth

Station Depth Elevation
Greenpoint 1 in 3200 ft
Red Hill 0 in 4400 ft
Blazed Alder 0 in 3650 ft
North Fork 1 in 3120 ft
Mt. Hood Test Site 0 in 5400 ft

Earthquake Activity

City Distance Mag. Time & Date
No recent earthquake activity has been reported nearby.
Minimum magnitude displayed is 2.5.

Coastal Water Temperatures

Place Temperature
No Stations Reporting

Nearby Weather Stations